Time;durP1;ratioP1;P1;durP2;ratioP2;P2;SDS_P1;SDS_P2;PMS_P1;PMS_P2;Temp;Humidity;BMP_temperature;BMP_pressure;BME280_temperature;BME280_humidity;BME280_pressure;Samples;Min_cycle;Max_cycle;Signal;HPM_P1;HPM_P2
2022/07/29 00:01:01;;;;;;;7.78;3.00;;;17.60;99.90;;;;;;5008851;28;20789;-75
2022/07/29 00:03:26;;;;;;;5.03;2.80;;;17.70;99.90;;;;;;5004062;28;20608;-76
2022/07/29 00:05:52;;;;;;;9.52;3.53;;;17.60;99.90;;;;;;4995503;28;20227;-75
2022/07/29 00:08:19;;;;;;;5.95;3.53;;;17.60;99.90;;;;;;4992238;28;20581;-75
2022/07/29 00:10:44;;;;;;;8.30;3.15;;;17.50;99.90;;;;;;5007373;28;20312;-75
2022/07/29 00:13:10;;;;;;;6.05;3.38;;;17.50;99.90;;;;;;4996123;28;20260;-75
2022/07/29 00:15:35;;;;;;;7.78;3.58;;;17.50;99.90;;;;;;5009904;28;20209;-76
2022/07/29 00:18:01;;;;;;;5.43;3.05;;;17.50;99.90;;;;;;5008667;28;20205;-76
2022/07/29 00:20:27;;;;;;;6.30;3.30;;;17.60;99.90;;;;;;5003748;28;20213;-75
2022/07/29 00:22:53;;;;;;;6.25;3.20;;;17.50;99.90;;;;;;5012139;28;20604;-75
2022/07/29 00:25:18;;;;;;;8.93;3.67;;;17.50;99.90;;;;;;4994014;28;20288;-75
2022/07/29 00:27:45;;;;;;;7.05;3.70;;;17.50;99.90;;;;;;5007143;28;20597;-74
2022/07/29 00:30:11;;;;;;;5.25;3.88;;;17.40;99.90;;;;;;5006451;28;20221;-74
2022/07/29 00:32:37;;;;;;;9.00;3.80;;;17.40;99.90;;;;;;5010266;28;20188;-75
2022/07/29 00:37:47;;;;;;;8.57;3.30;;;17.50;99.90;;;;;;5005430;28;20243;-74
2022/07/29 00:40:13;;;;;;;5.32;3.58;;;17.40;99.90;;;;;;5007981;28;20232;-75
2022/07/29 00:42:46;;;;;;;6.00;3.60;;;17.40;99.90;;;;;;5008284;28;20237;-74
2022/07/29 00:45:13;;;;;;;6.55;3.58;;;17.30;99.90;;;;;;5005204;28;20595;-75
2022/07/29 00:47:39;;;;;;;7.00;4.00;;;17.30;99.90;;;;;;4990584;28;20187;-75
2022/07/29 00:50:06;;;;;;;8.70;3.50;;;17.20;99.90;;;;;;4995312;28;20197;-75
2022/07/29 00:52:33;;;;;;;8.68;4.25;;;17.10;99.90;;;;;;5004578;28;20221;-74
2022/07/29 00:54:59;;;;;;;6.13;3.80;;;17.10;99.90;;;;;;4987365;28;20232;-76
2022/07/29 00:57:25;;;;;;;9.82;3.55;;;17.10;99.90;;;;;;5008030;28;20240;-75
2022/07/29 00:59:50;;;;;;;9.77;4.13;;;17.10;99.90;;;;;;5008103;28;20256;-75
2022/07/29 01:02:16;;;;;;;13.13;4.75;;;17.20;99.90;;;;;;4987244;28;20685;-74
2022/07/29 01:04:41;;;;;;;5.85;3.63;;;17.20;99.90;;;;;;5007691;28;20232;-75
2022/07/29 01:07:07;;;;;;;6.10;3.35;;;17.10;99.90;;;;;;5011224;28;20201;-75
2022/07/29 01:09:35;;;;;;;7.15;3.67;;;17.10;99.90;;;;;;5008235;28;20229;-75
2022/07/29 01:12:01;;;;;;;8.20;3.63;;;17.10;99.90;;;;;;5004484;28;20221;-75
2022/07/29 01:14:28;;;;;;;7.75;3.97;;;17.10;99.90;;;;;;4991891;28;20195;-75
2022/07/29 01:17:07;;;;;;;7.75;3.60;;;17.10;99.90;;;;;;5008887;28;20215;-75
2022/07/29 01:19:32;;;;;;;5.82;3.70;;;17.10;99.90;;;;;;4986637;28;20208;-75
2022/07/29 01:22:02;;;;;;;7.10;3.90;;;17.10;99.90;;;;;;5008108;28;20212;-75
2022/07/29 01:24:52;;;;;;;5.28;3.53;;;17.10;99.90;;;;;;5009195;28;20300;-75
2022/07/29 01:27:39;;;;;;;6.85;3.40;;;17.10;99.90;;;;;;4993443;28;20212;-75
2022/07/29 01:30:06;;;;;;;8.02;3.35;;;17.00;99.90;;;;;;4994745;28;20297;-75
2022/07/29 01:32:35;;;;;;;5.95;3.38;;;17.00;99.90;;;;;;5011847;28;20174;-75
2022/07/29 01:35:00;;;;;;;9.07;3.90;;;17.00;99.90;;;;;;5009688;28;20274;-75
2022/07/29 01:37:32;;;;;;;8.10;3.45;;;16.90;99.90;;;;;;4995346;28;20694;-75
2022/07/29 01:39:59;;;;;;;6.03;3.55;;;16.90;99.90;;;;;;5010416;28;20270;-74
2022/07/29 01:42:37;;;;;;;7.18;4.00;;;16.80;99.90;;;;;;5010003;28;20267;-75
2022/07/29 01:45:23;;;;;;;5.30;3.33;;;16.90;99.90;;;;;;4993493;28;20647;-75
2022/07/29 01:48:04;;;;;;;5.82;3.13;;;16.90;99.90;;;;;;5003667;28;20189;-76
2022/07/29 01:50:34;;;;;;;9.18;4.07;;;16.80;99.90;;;;;;5007710;28;20303;-74
2022/07/29 01:53:06;;;;;;;5.45;3.63;;;16.80;99.90;;;;;;5004803;28;20204;-75
2022/07/29 01:55:36;;;;;;;5.28;3.40;;;16.70;99.90;;;;;;5002511;28;20201;-75
2022/07/29 01:58:04;;;;;;;8.00;3.53;;;16.70;99.90;;;;;;5010604;28;20229;-75
2022/07/29 02:00:31;;;;;;;7.68;3.50;;;16.70;99.90;;;;;;4989476;28;20207;-74
2022/07/29 02:03:00;;;;;;;6.28;3.80;;;16.60;99.90;;;;;;5003935;28;20205;-75
2022/07/29 02:05:28;;;;;;;7.72;4.03;;;16.70;99.90;;;;;;5008986;28;20169;-74
2022/07/29 02:07:55;;;;;;;8.40;3.28;;;16.60;99.90;;;;;;5008121;28;20211;-75
2022/07/29 02:10:23;;;;;;;5.03;3.40;;;16.60;99.90;;;;;;5002986;28;20252;-75
2022/07/29 02:12:50;;;;;;;5.10;3.03;;;16.50;99.90;;;;;;5004011;28;20201;-75
2022/07/29 02:15:17;;;;;;;6.05;3.10;;;16.50;99.90;;;;;;5009010;28;20611;-75
2022/07/29 02:17:56;;;;;;;7.70;3.55;;;16.50;99.90;;;;;;5008174;28;20183;-74
2022/07/29 02:20:24;;;;;;;5.63;3.28;;;16.40;99.90;;;;;;5001699;28;20182;-74
2022/07/29 02:22:51;;;;;;;7.57;3.30;;;16.50;99.90;;;;;;5006593;28;20232;-76
2022/07/29 02:25:19;;;;;;;5.68;2.85;;;16.50;99.90;;;;;;4990861;28;20201;-75
2022/07/29 02:27:45;;;;;;;4.65;2.97;;;16.60;99.90;;;;;;4993208;28;20201;-74
2022/07/29 02:30:12;;;;;;;5.15;2.97;;;16.50;99.90;;;;;;5003900;28;20237;-75
2022/07/29 02:32:41;;;;;;;7.63;6.00;;;16.50;99.90;;;;;;5008083;28;20188;-75
2022/07/29 02:35:09;;;;;;;7.20;4.40;;;16.40;99.90;;;;;;5009356;28;20197;-75
2022/07/29 02:37:36;;;;;;;5.47;3.90;;;16.40;99.90;;;;;;5003913;28;20209;-76
2022/07/29 02:40:03;;;;;;;7.22;4.28;;;16.50;99.90;;;;;;5006090;28;20205;-74
2022/07/29 02:42:30;;;;;;;5.60;3.40;;;16.50;99.90;;;;;;5005701;28;20299;-75
2022/07/29 02:44:56;;;;;;;5.75;4.00;;;16.40;99.90;;;;;;5008479;28;20244;-75
2022/07/29 02:47:41;;;;;;;5.68;4.03;;;16.40;99.90;;;;;;5001333;28;20209;-74
2022/07/29 02:50:17;;;;;;;7.00;3.60;;;16.40;99.90;;;;;;4998932;28;20224;-74
2022/07/29 02:52:47;;;;;;;6.82;4.53;;;16.40;99.90;;;;;;5000889;28;20216;-75
2022/07/29 02:55:21;;;;;;;7.65;4.88;;;16.40;99.90;;;;;;4999885;28;20202;-75
2022/07/29 02:57:57;;;;;;;6.95;4.68;;;16.40;99.90;;;;;;4999436;28;20541;-76
2022/07/29 03:00:27;;;;;;;5.05;3.60;;;16.40;99.90;;;;;;4999809;28;20223;-74
2022/07/29 03:02:56;;;;;;;6.72;3.63;;;16.40;99.90;;;;;;5002185;28;20184;-75
2022/07/29 03:05:23;;;;;;;6.88;3.72;;;16.40;99.90;;;;;;4982330;28;20209;-74
2022/07/29 03:08:00;;;;;;;8.90;4.97;;;16.50;99.90;;;;;;4982684;28;20693;-75
2022/07/29 03:10:27;;;;;;;5.60;3.42;;;16.50;99.90;;;;;;4998610;28;20221;-75
2022/07/29 03:12:53;;;;;;;7.45;4.13;;;16.50;99.90;;;;;;5002817;28;20201;-76
2022/07/29 03:15:20;;;;;;;7.07;3.55;;;16.40;99.90;;;;;;4985646;28;20232;-76
2022/07/29 03:17:46;;;;;;;5.38;4.43;;;16.50;99.90;;;;;;4986478;28;20272;-75
2022/07/29 03:20:13;;;;;;;10.57;6.57;;;16.50;99.90;;;;;;4983186;28;20580;-75
2022/07/29 03:22:43;;;;;;;7.18;3.70;;;16.50;99.90;;;;;;4998228;28;20217;-76
2022/07/29 03:25:16;;;;;;;10.82;4.88;;;16.40;99.90;;;;;;4998464;28;20677;-76
2022/07/29 03:27:43;;;;;;;7.80;4.28;;;16.40;99.90;;;;;;5000181;28;20674;-74
2022/07/29 03:30:10;;;;;;;5.97;3.45;;;16.40;99.90;;;;;;4999003;28;20335;-76
2022/07/29 03:32:37;;;;;;;7.45;4.07;;;16.40;99.90;;;;;;4981829;28;20544;-75
2022/07/29 03:35:03;;;;;;;7.57;3.70;;;16.30;99.90;;;;;;5002222;28;20287;-75
2022/07/29 03:37:30;;;;;;;4.93;3.60;;;16.40;99.90;;;;;;4999331;28;20545;-75
2022/07/29 03:39:57;;;;;;;6.65;3.90;;;16.40;99.90;;;;;;4998878;28;20487;-75
2022/07/29 03:42:25;;;;;;;6.18;3.47;;;16.30;99.90;;;;;;5000011;28;20216;-74
2022/07/29 03:44:53;;;;;;;9.32;3.53;;;16.20;99.90;;;;;;5001863;28;20193;-75
2022/07/29 03:47:22;;;;;;;6.55;3.72;;;16.20;99.90;;;;;;4999167;28;20165;-75
2022/07/29 03:49:50;;;;;;;8.80;5.20;;;16.30;99.90;;;;;;4992763;28;20219;-76
2022/07/29 03:52:16;;;;;;;9.50;3.75;;;16.40;99.90;;;;;;5002156;28;20204;-75
2022/07/29 03:54:41;;;;;;;8.32;4.38;;;16.40;99.90;;;;;;5000739;28;20994;-75
2022/07/29 03:57:10;;;;;;;7.05;4.22;;;16.40;99.90;;;;;;4998627;28;20212;-76
2022/07/29 03:59:36;;;;;;;8.15;5.40;;;16.40;99.90;;;;;;5000205;28;20182;-75
2022/07/29 04:02:05;;;;;;;8.88;4.78;;;16.50;99.90;;;;;;4986074;28;20212;-75
2022/07/29 04:04:34;;;;;;;7.95;3.63;;;16.60;99.90;;;;;;4997884;28;20209;-75
2022/07/29 04:06:59;;;;;;;4.30;3.90;;;16.50;99.90;;;;;;5001140;28;20579;-75
2022/07/29 04:09:25;;;;;;;4.70;3.78;;;16.60;99.90;;;;;;4998166;28;20217;-74
2022/07/29 04:11:51;;;;;;;10.32;5.25;;;16.60;99.90;;;;;;5001727;28;20197;-75
2022/07/29 04:14:17;;;;;;;9.15;4.13;;;16.60;99.90;;;;;;4981261;28;20656;-75
2022/07/29 04:16:42;;;;;;;7.78;4.63;;;16.70;99.90;;;;;;4999070;28;20290;-76
2022/07/29 04:19:08;;;;;;;6.32;4.35;;;16.70;99.90;;;;;;5002616;28;20689;-76
2022/07/29 04:21:40;;;;;;;6.53;3.55;;;16.80;99.90;;;;;;5014315;23;20217;-67
2022/07/29 04:24:07;;;;;;;6.93;3.80;;;16.90;99.90;;;;;;4991582;28;20769;-69
2022/07/29 04:26:33;;;;;;;8.68;4.70;;;17.20;99.90;;;;;;4988086;28;20178;-69
2022/07/29 04:28:58;;;;;;;8.45;4.38;;;17.40;99.90;;;;;;4970207;28;20217;-69
2022/07/29 04:31:24;;;;;;;6.93;3.80;;;18.30;99.90;;;;;;4982521;28;20338;-69
2022/07/29 04:33:50;;;;;;;4.35;2.83;;;19.10;99.90;;;;;;4989880;28;20209;-69
2022/07/29 04:36:15;;;;;;;10.23;4.50;;;20.10;99.90;;;;;;4972823;28;20234;-69
2022/07/29 04:38:41;;;;;;;10.38;5.07;;;19.90;99.90;;;;;;4993584;28;20182;-69
2022/07/29 04:41:08;;;;;;;6.13;4.00;;;19.30;99.90;;;;;;4994564;28;20189;-69
2022/07/29 04:43:34;;;;;;;7.38;4.55;;;18.90;99.90;;;;;;4992955;28;20213;-69
2022/07/29 04:46:00;;;;;;;7.03;3.90;;;18.60;99.90;;;;;;4993365;28;20293;-69
2022/07/29 04:48:26;;;;;;;7.43;4.22;;;18.30;99.90;;;;;;4971211;28;20797;-69
2022/07/29 04:50:51;;;;;;;7.90;4.38;;;18.30;99.90;;;;;;4993062;28;20206;-69
2022/07/29 04:53:17;;;;;;;6.47;3.72;;;18.50;99.90;;;;;;4993730;28;20340;-69
2022/07/29 04:55:44;;;;;;;5.72;4.47;;;18.40;99.90;;;;;;4972112;28;20305;-69
2022/07/29 04:58:10;;;;;;;4.97;4.28;;;18.40;99.90;;;;;;5001063;28;20248;-69
2022/07/29 05:00:35;;;;;;;8.05;3.03;;;18.20;99.90;;;;;;5000697;28;20213;-68
2022/07/29 05:03:01;;;;;;;5.97;3.30;;;18.30;99.90;;;;;;4993077;28;20209;-69
2022/07/29 05:05:27;;;;;;;4.68;3.00;;;18.50;99.90;;;;;;4991842;28;20177;-69
2022/07/29 05:07:52;;;;;;;5.55;2.70;;;18.80;99.90;;;;;;4975533;28;20204;-68
2022/07/29 05:10:18;;;;;;;7.13;3.13;;;19.00;99.90;;;;;;4992937;28;20631;-69
2022/07/29 05:12:44;;;;;;;6.70;3.20;;;19.20;99.90;;;;;;4992774;28;20213;-68
2022/07/29 05:15:09;;;;;;;6.60;3.78;;;19.20;99.90;;;;;;4993062;28;20213;-69
2022/07/29 05:17:35;;;;;;;12.18;3.28;;;19.40;99.90;;;;;;4971413;28;20174;-69
2022/07/29 05:20:01;;;;;;;5.75;2.85;;;19.30;99.90;;;;;;4973914;28;20206;-69
2022/07/29 05:22:26;;;;;;;4.13;2.95;;;19.20;99.90;;;;;;4967500;28;20209;-68
2022/07/29 05:24:52;;;;;;;8.32;3.42;;;19.00;99.90;;;;;;4992892;28;20232;-68
2022/07/29 05:27:17;;;;;;;8.98;3.28;;;18.70;99.90;;;;;;4992913;28;20205;-67
2022/07/29 05:29:44;;;;;;;9.50;2.67;;;18.70;99.90;;;;;;4991734;28;20240;-68
2022/07/29 05:32:09;;;;;;;9.65;4.18;;;19.00;99.90;;;;;;4976270;28;20698;-69
2022/07/29 05:34:35;;;;;;;5.85;3.00;;;18.90;99.90;;;;;;4970225;28;20207;-69
2022/07/29 05:37:01;;;;;;;8.00;3.03;;;18.90;99.90;;;;;;4992820;28;20682;-69
2022/07/29 05:39:26;;;;;;;7.10;3.75;;;18.70;99.90;;;;;;4991895;28;20590;-69
2022/07/29 05:41:52;;;;;;;11.30;4.40;;;18.60;99.90;;;;;;4992687;28;20635;-69
2022/07/29 05:44:17;;;;;;;9.10;4.00;;;18.50;99.90;;;;;;4993000;28;20181;-69
2022/07/29 05:46:43;;;;;;;7.10;3.78;;;18.40;99.90;;;;;;4992188;28;20654;-69
2022/07/29 05:49:08;;;;;;;9.93;3.83;;;18.30;99.90;;;;;;4991924;28;20209;-69
2022/07/29 05:51:34;;;;;;;4.55;3.50;;;18.20;99.90;;;;;;4992216;28;20210;-69
2022/07/29 05:54:00;;;;;;;8.48;3.72;;;18.20;99.90;;;;;;4992599;28;20721;-69
2022/07/29 05:56:25;;;;;;;6.40;3.83;;;18.30;99.90;;;;;;4992430;28;20221;-69
2022/07/29 05:58:52;;;;;;;7.53;3.50;;;18.50;99.90;;;;;;4992054;28;20578;-69
2022/07/29 06:01:17;;;;;;;5.80;2.88;;;18.90;99.90;;;;;;4992163;28;20201;-68
2022/07/29 06:03:43;;;;;;;7.22;3.90;;;19.20;99.90;;;;;;4991458;28;20212;-68
2022/07/29 06:06:09;;;;;;;5.45;3.30;;;19.90;99.90;;;;;;4991582;28;20205;-68
2022/07/29 06:08:36;;;;;;;8.93;3.58;;;20.00;99.90;;;;;;4992110;28;20170;-69
2022/07/29 06:11:02;;;;;;;6.18;3.17;;;20.20;99.90;;;;;;4973435;28;20209;-69
2022/07/29 06:13:27;;;;;;;9.40;3.53;;;20.60;99.90;;;;;;4988771;28;20578;-68
2022/07/29 06:15:53;;;;;;;8.43;3.40;;;21.20;99.90;;;;;;4992080;28;20280;-68
2022/07/29 06:18:20;;;;;;;8.95;2.70;;;22.50;99.90;;;;;;4971459;28;20201;-68
2022/07/29 06:20:46;;;;;;;8.38;3.17;;;22.80;99.90;;;;;;4988179;28;20278;-70
2022/07/29 06:23:12;;;;;;;8.80;3.08;;;22.90;99.90;;;;;;4992205;28;20291;-68
2022/07/29 06:25:39;;;;;;;6.05;3.20;;;23.20;99.90;;;;;;4991984;28;20772;-68
2022/07/29 06:28:04;;;;;;;6.50;3.10;;;23.00;99.90;;;;;;4991961;28;20576;-68
2022/07/29 06:30:30;;;;;;;6.20;2.95;;;22.40;99.90;;;;;;4992398;28;20213;-68
2022/07/29 06:32:56;;;;;;;4.60;2.70;;;22.10;99.90;;;;;;4991730;28;20319;-69
2022/07/29 06:35:21;;;;;;;18.05;3.30;;;21.90;99.90;;;;;;4991884;28;20264;-68
2022/07/29 06:37:47;;;;;;;5.28;3.15;;;21.60;99.90;;;;;;4974082;28;20288;-69
2022/07/29 06:42:57;;;;;;;7.35;3.10;;;21.20;99.90;;;;;;4988800;28;20288;-68
2022/07/29 06:45:24;;;;;;;7.68;3.40;;;20.70;99.90;;;;;;4991026;28;20262;-68
2022/07/29 06:47:49;;;;;;;5.75;2.95;;;20.80;99.90;;;;;;4987508;28;20210;-68
2022/07/29 06:50:15;;;;;;;5.65;3.17;;;20.70;99.90;;;;;;4991643;28;20279;-69
2022/07/29 06:52:41;;;;;;;5.97;3.65;;;20.90;99.90;;;;;;4991340;28;20217;-70
2022/07/29 06:55:07;;;;;;;6.57;3.33;;;20.80;99.90;;;;;;4971657;28;20197;-70
2022/07/29 06:57:33;;;;;;;7.60;2.92;;;21.00;99.90;;;;;;4988772;28;20289;-69
2022/07/29 06:59:59;;;;;;;5.22;3.00;;;21.20;99.90;;;;;;4990963;28;20210;-70
2022/07/29 07:02:25;;;;;;;5.40;2.80;;;21.30;99.90;;;;;;4991510;28;20193;-69
2022/07/29 07:04:51;;;;;;;7.25;3.10;;;21.50;99.90;;;;;;4990495;28;20548;-70
2022/07/29 07:07:16;;;;;;;4.55;2.75;;;22.00;99.90;;;;;;4991158;28;20205;-70
2022/07/29 07:09:42;;;;;;;9.27;2.97;;;23.10;99.90;;;;;;4990974;28;20205;-70
2022/07/29 07:12:08;;;;;;;8.45;2.88;;;24.40;99.90;;;;;;4991523;28;20212;-70
2022/07/29 07:14:34;;;;;;;4.93;2.40;;;25.70;99.90;;;;;;4991567;28;20185;-70
2022/07/29 07:17:00;;;;;;;5.63;3.10;;;26.10;99.90;;;;;;4991995;28;20201;-71
2022/07/29 07:19:26;;;;;;;7.38;3.53;;;26.30;99.90;;;;;;4992379;28;20671;-70
2022/07/29 07:21:55;;;;;;;8.07;4.22;;;25.70;99.90;;;;;;4991075;28;20216;-71
2022/07/29 07:24:20;;;;;;;5.82;2.92;;;25.90;99.90;;;;;;4991520;28;20217;-68
2022/07/29 07:26:46;;;;;;;8.95;3.30;;;25.90;99.90;;;;;;4991956;28;20173;-69
2022/07/29 07:29:12;;;;;;;5.53;3.53;;;27.10;99.90;;;;;;4991965;28;20674;-69
2022/07/29 07:31:38;;;;;;;4.65;2.30;;;27.60;99.90;;;;;;4992156;28;20205;-70
2022/07/29 07:34:04;;;;;;;11.80;2.65;;;28.00;99.90;;;;;;4991633;28;20284;-69
2022/07/29 07:36:29;;;;;;;6.18;2.60;;;28.70;99.90;;;;;;4991410;28;20228;-69
2022/07/29 07:38:55;;;;;;;7.75;2.47;;;29.80;99.90;;;;;;4990699;28;20180;-70
2022/07/29 07:41:22;;;;;;;6.20;2.78;;;30.60;97.70;;;;;;4991060;28;20743;-69
2022/07/29 07:43:47;;;;;;;6.35;3.10;;;30.00;96.70;;;;;;4973438;28;20264;-69
2022/07/29 07:46:13;;;;;;;6.00;2.22;;;29.80;97.50;;;;;;4991230;28;20610;-69
2022/07/29 07:48:39;;;;;;;6.28;2.20;;;29.70;96.80;;;;;;4990211;28;20210;-69
2022/07/29 07:51:04;;;;;;;7.65;2.15;;;29.20;96.60;;;;;;4990915;28;20273;-69
2022/07/29 07:53:30;;;;;;;8.70;2.67;;;29.30;96.50;;;;;;4990663;28;20193;-69
2022/07/29 07:55:56;;;;;;;5.95;3.25;;;28.90;97.40;;;;;;4990708;28;20220;-70
2022/07/29 07:58:21;;;;;;;11.15;2.83;;;29.70;96.20;;;;;;4991092;28;20206;-70
2022/07/29 08:00:47;;;;;;;7.30;2.25;;;29.50;94.80;;;;;;4990658;28;20206;-71
2022/07/29 08:03:13;;;;;;;7.50;2.67;;;30.90;94.30;;;;;;4990703;28;20218;-70
2022/07/29 08:05:40;;;;;;;5.20;2.28;;;31.00;92.60;;;;;;4968417;28;20249;-70
2022/07/29 08:08:06;;;;;;;6.10;2.50;;;29.40;93.70;;;;;;4991270;28;20166;-70
2022/07/29 08:13:15;;;;;;;5.00;1.92;;;28.50;95.30;;;;;;4994681;28;20240;-70
2022/07/29 08:15:42;;;;;;;4.78;2.08;;;28.80;94.70;;;;;;4994500;28;20243;-70
2022/07/29 08:18:08;;;;;;;5.82;2.30;;;30.00;94.20;;;;;;4994463;28;20717;-70
2022/07/29 08:20:35;;;;;;;4.65;2.08;;;30.20;92.60;;;;;;4970231;28;20186;-69
2022/07/29 08:23:02;;;;;;;6.95;1.70;;;30.70;91.60;;;;;;4993841;28;20586;-70
2022/07/29 08:25:27;;;;;;;5.60;1.90;;;29.50;92.10;;;;;;4994612;28;20304;-70
2022/07/29 08:27:53;;;;;;;4.10;2.00;;;30.00;93.10;;;;;;4994132;28;20206;-70
2022/07/29 08:30:19;;;;;;;5.97;2.45;;;30.70;91.90;;;;;;4995437;28;20218;-71
2022/07/29 08:32:44;;;;;;;2.42;1.60;;;30.80;90.50;;;;;;4994079;28;20197;-68
2022/07/29 08:35:10;;;;;;;5.55;2.42;;;29.60;91.80;;;;;;4994655;28;20177;-68
2022/07/29 08:37:35;;;;;;;6.53;1.83;;;29.70;91.50;;;;;;4993908;28;20276;-68
2022/07/29 08:40:01;;;;;;;3.65;1.55;;;30.00;91.30;;;;;;4976275;28;20197;-68
2022/07/29 08:42:27;;;;;;;5.35;2.22;;;30.20;90.80;;;;;;4993781;28;20293;-69
2022/07/29 08:44:54;;;;;;;6.28;2.30;;;29.90;90.30;;;;;;4993597;28;20232;-68
2022/07/29 08:47:20;;;;;;;4.22;2.00;;;30.20;90.20;;;;;;4976684;28;20205;-69
2022/07/29 08:49:48;;;;;;;4.00;1.75;;;30.60;89.70;;;;;;4976070;28;20236;-69
2022/07/29 08:52:14;;;;;;;4.18;1.90;;;29.80;90.20;;;;;;4974365;28;20209;-69
2022/07/29 08:54:43;;;;;;;5.70;2.20;;;29.80;90.80;;;;;;4968636;28;20703;-70
2022/07/29 08:57:12;;;;;;;6.95;2.20;;;29.30;90.60;;;;;;4975983;28;20624;-70
2022/07/29 08:59:40;;;;;;;3.53;1.90;;;28.60;91.20;;;;;;4992121;28;20174;-69
2022/07/29 09:02:18;;;;;;;5.38;2.25;;;28.20;91.80;;;;;;4994301;28;20193;-69
2022/07/29 09:04:44;;;;;;;3.42;1.85;;;28.50;91.50;;;;;;5002806;28;20213;-69
2022/07/29 09:07:15;;;;;;;5.40;2.03;;;28.60;91.10;;;;;;5002979;28;20209;-70
2022/07/29 09:09:42;;;;;;;5.28;2.58;;;28.50;91.30;;;;;;4995868;28;20308;-69
2022/07/29 09:12:11;;;;;;;7.07;2.45;;;28.60;91.70;;;;;;4994008;28;20209;-72
2022/07/29 09:14:40;;;;;;;6.05;2.33;;;28.70;91.20;;;;;;4994353;28;20182;-71
2022/07/29 09:17:07;;;;;;;3.42;1.90;;;29.00;91.30;;;;;;4994105;28;20260;-69
2022/07/29 09:19:35;;;;;;;4.03;2.53;;;29.40;90.40;;;;;;4993507;28;20300;-68
2022/07/29 09:22:06;;;;;;;9.00;3.70;;;29.80;90.40;;;;;;4992836;28;20214;-70
2022/07/29 09:24:34;;;;;;;4.47;3.17;;;30.20;90.30;;;;;;4993491;28;20654;-69
2022/07/29 09:27:01;;;;;;;6.10;2.13;;;29.70;89.50;;;;;;4993157;28;20221;-69
2022/07/29 09:29:27;;;;;;;4.00;2.00;;;28.50;90.60;;;;;;4993197;28;20194;-68
2022/07/29 09:31:54;;;;;;;9.45;4.28;;;28.20;90.80;;;;;;4993559;28;20202;-70
2022/07/29 09:34:26;;;;;;;4.38;2.83;;;28.20;91.10;;;;;;4972988;28;20206;-68
2022/07/29 09:36:53;;;;;;;5.07;2.70;;;27.80;91.50;;;;;;4992279;28;20204;-68
2022/07/29 09:39:31;;;;;;;5.68;2.33;;;27.50;91.80;;;;;;4975543;28;20214;-69
2022/07/29 09:42:01;;;;;;;5.65;2.63;;;27.30;92.10;;;;;;4990933;28;20198;-69
2022/07/29 09:44:40;;;;;;;5.03;2.00;;;27.10;92.20;;;;;;4993210;28;20180;-69
2022/07/29 09:47:08;;;;;;;4.05;2.42;;;27.00;92.20;;;;;;4989439;28;20220;-69
2022/07/29 09:49:35;;;;;;;4.65;2.30;;;26.70;92.20;;;;;;4991696;28;20206;-69
2022/07/29 09:52:03;;;;;;;18.65;4.65;;;26.40;92.50;;;;;;4992459;28;20229;-69
2022/07/29 09:54:34;;;;;;;3.25;1.98;;;26.10;92.40;;;;;;4990149;28;20197;-69
2022/07/29 09:56:59;;;;;;;4.78;2.05;;;26.10;92.50;;;;;;4992011;28;20292;-69
2022/07/29 09:59:26;;;;;;;4.25;2.60;;;26.40;92.10;;;;;;4992763;28;20265;-69
2022/07/29 10:01:52;;;;;;;5.72;2.00;;;27.00;91.70;;;;;;4992254;28;20212;-69
2022/07/29 10:04:18;;;;;;;6.95;2.53;;;27.40;91.30;;;;;;4974895;28;20212;-69
2022/07/29 10:07:00;;;;;;;6.15;2.53;;;27.70;91.40;;;;;;4991994;28;20512;-69
2022/07/29 10:09:26;;;;;;;3.00;2.00;;;28.30;90.90;;;;;;4991790;28;20808;-69
2022/07/29 10:12:10;;;;;;;6.40;1.95;;;27.90;90.90;;;;;;4992306;28;20198;-69
2022/07/29 10:14:37;;;;;;;23.75;4.80;;;27.70;90.80;;;;;;4992286;28;20216;-69
2022/07/29 10:17:04;;;;;;;4.10;1.95;;;27.30;91.00;;;;;;4992028;28;20549;-69
2022/07/29 10:19:31;;;;;;;4.13;1.70;;;27.30;91.20;;;;;;4989623;28;20340;-69
2022/07/29 10:21:58;;;;;;;4.85;2.13;;;27.20;91.30;;;;;;4991547;28;20217;-70
2022/07/29 10:24:29;;;;;;;5.35;2.50;;;26.80;91.10;;;;;;4973005;28;20264;-69
2022/07/29 10:26:56;;;;;;;3.95;2.10;;;26.40;91.60;;;;;;4974197;28;20173;-69
2022/07/29 10:29:21;;;;;;;6.82;2.33;;;26.10;91.20;;;;;;4992081;28;20197;-69
2022/07/29 10:32:17;;;;;;;3.97;1.70;;;25.70;91.10;;;;;;5009460;23;20232;-76
2022/07/29 10:35:21;;;;;;;6.97;1.77;;;26.10;91.50;;;;;;4989172;28;20658;-74
2022/07/29 10:38:21;;;;;;;4.97;2.00;;;26.10;91.40;;;;;;4983374;28;20674;-73
2022/07/29 10:41:27;;;;;;;5.35;2.22;;;26.10;90.90;;;;;;5001463;28;20220;-74
2022/07/29 10:44:07;;;;;;;4.95;2.90;;;26.50;91.10;;;;;;4982581;28;20202;-74
2022/07/29 10:46:40;;;;;;;4.88;2.28;;;26.70;90.80;;;;;;4982688;28;20214;-74
2022/07/29 10:49:15;;;;;;;3.88;2.35;;;26.60;91.20;;;;;;4992588;28;20205;-73
2022/07/29 10:52:07;;;;;;;6.60;1.85;;;26.70;90.80;;;;;;4986826;28;21254;-74
2022/07/29 10:54:41;;;;;;;3.10;2.13;;;26.50;91.00;;;;;;4982934;28;20214;-76
2022/07/29 10:57:22;;;;;;;2.95;1.98;;;26.90;91.10;;;;;;4986953;28;20194;-76
2022/07/29 10:59:50;;;;;;;3.25;1.65;;;26.90;91.00;;;;;;4985374;28;20224;-74
2022/07/29 11:02:35;;;;;;;5.32;2.88;;;27.00;91.00;;;;;;4987747;28;20216;-75
2022/07/29 11:05:03;;;;;;;2.55;1.63;;;26.90;90.60;;;;;;4984478;28;20202;-75
2022/07/29 11:07:29;;;;;;;7.82;2.40;;;26.70;90.40;;;;;;4989771;28;20214;-75
2022/07/29 11:10:13;;;;;;;2.83;1.88;;;26.70;90.60;;;;;;4986492;28;20248;-74
2022/07/29 11:12:46;;;;;;;4.38;1.70;;;26.60;91.00;;;;;;4997640;28;20209;-75
2022/07/29 11:15:18;;;;;;;4.80;2.40;;;26.90;90.80;;;;;;4989012;28;20756;-75
2022/07/29 11:18:00;;;;;;;6.95;2.25;;;26.90;90.50;;;;;;4989108;28;20173;-75
2022/07/29 11:20:34;;;;;;;4.53;2.08;;;27.40;90.70;;;;;;4987831;28;20175;-76
2022/07/29 11:23:01;;;;;;;3.38;2.22;;;28.00;90.40;;;;;;4989417;28;20209;-75
2022/07/29 11:25:26;;;;;;;4.20;2.05;;;28.10;90.00;;;;;;4985837;28;20675;-74
2022/07/29 11:28:07;;;;;;;2.60;1.85;;;27.60;90.00;;;;;;4985079;28;20359;-74
2022/07/29 11:31:00;;;;;;;5.88;2.20;;;27.60;90.30;;;;;;4984575;28;20228;-74
2022/07/29 11:33:33;;;;;;;5.88;2.08;;;28.00;90.10;;;;;;4983056;28;20229;-73
2022/07/29 11:36:15;;;;;;;4.47;2.22;;;28.10;90.00;;;;;;4985200;28;20635;-75
2022/07/29 11:38:41;;;;;;;3.50;2.30;;;27.40;90.70;;;;;;4981657;28;20200;-75
2022/07/29 11:41:20;;;;;;;17.27;2.30;;;27.20;91.00;;;;;;4991240;28;20276;-75
2022/07/29 11:44:04;;;;;;;5.97;2.50;;;27.10;91.10;;;;;;4985452;28;20197;-75
2022/07/29 11:46:50;;;;;;;23.30;4.88;;;27.00;91.00;;;;;;4987364;28;20202;-76
2022/07/29 11:49:26;;;;;;;5.28;2.10;;;27.30;91.00;;;;;;4989300;28;20208;-75
2022/07/29 11:51:53;;;;;;;7.82;2.13;;;27.10;90.80;;;;;;4989173;28;20229;-75
2022/07/29 11:54:31;;;;;;;4.40;2.20;;;27.10;91.20;;;;;;4990060;28;20260;-73
2022/07/29 11:56:58;;;;;;;5.10;2.53;;;27.20;91.50;;;;;;4990252;28;20228;-75
2022/07/29 11:59:24;;;;;;;5.15;2.20;;;27.50;91.60;;;;;;4991423;28;20205;-74
2022/07/29 12:01:58;;;;;;;3.85;2.33;;;27.70;91.40;;;;;;4989397;28;20405;-75
2022/07/29 12:04:24;;;;;;;5.75;2.33;;;27.70;91.50;;;;;;4984876;28;20209;-74
2022/07/29 12:06:51;;;;;;;5.05;2.10;;;27.40;91.80;;;;;;4992469;28;20201;-75
2022/07/29 12:09:17;;;;;;;4.20;2.20;;;27.20;91.90;;;;;;4988331;28;20217;-75
2022/07/29 12:11:43;;;;;;;4.28;2.17;;;27.10;92.20;;;;;;4987834;28;20341;-75
2022/07/29 12:14:09;;;;;;;4.05;1.95;;;27.20;92.20;;;;;;4990705;28;20190;-75
2022/07/29 12:16:37;;;;;;;5.40;2.08;;;27.20;92.60;;;;;;4990342;28;20567;-75
2022/07/29 12:19:04;;;;;;;4.68;2.40;;;27.30;93.00;;;;;;4986997;28;20202;-75
2022/07/29 12:21:51;;;;;;;5.30;2.45;;;27.50;92.90;;;;;;4985121;28;20210;-75
2022/07/29 12:24:18;;;;;;;3.63;2.28;;;27.40;92.90;;;;;;4986728;28;20217;-75
2022/07/29 12:26:58;;;;;;;4.53;2.47;;;27.10;93.30;;;;;;4988509;28;20542;-75
2022/07/29 12:29:24;;;;;;;6.07;2.63;;;27.10;93.90;;;;;;4984006;28;20209;-75
2022/07/29 12:31:53;;;;;;;3.28;2.67;;;27.30;93.80;;;;;;4992849;28;20756;-75
2022/07/29 12:34:22;;;;;;;3.10;2.22;;;27.10;94.00;;;;;;4990885;28;20948;-75
2022/07/29 12:36:49;;;;;;;10.68;2.75;;;27.20;94.00;;;;;;4992711;28;20710;-76
2022/07/29 12:39:16;;;;;;;4.88;2.90;;;27.00;94.40;;;;;;4997204;28;20259;-75
2022/07/29 12:41:43;;;;;;;5.32;2.67;;;27.10;94.30;;;;;;5010380;28;20193;-75
2022/07/29 12:44:09;;;;;;;2.70;2.33;;;27.20;94.70;;;;;;5007188;28;20170;-75
2022/07/29 12:46:34;;;;;;;6.45;2.80;;;27.20;94.60;;;;;;5007562;28;20236;-75
2022/07/29 12:49:00;;;;;;;3.38;2.72;;;27.20;94.30;;;;;;5012759;28;20643;-75
2022/07/29 12:51:33;;;;;;;4.22;2.30;;;27.20;94.60;;;;;;5004275;28;20218;-75
2022/07/29 12:54:14;;;;;;;3.22;2.63;;;27.40;94.60;;;;;;5002233;28;20218;-75
2022/07/29 12:56:41;;;;;;;5.07;2.70;;;27.00;94.10;;;;;;4992272;28;20205;-76
2022/07/29 12:59:18;;;;;;;4.47;2.60;;;27.20;94.20;;;;;;4992592;28;20166;-76
2022/07/29 13:01:47;;;;;;;7.35;2.42;;;27.40;94.20;;;;;;4988481;28;20205;-76